sensor_id;sensor_type;location;lat;lon;timestamp;pressure;altitude;pressure_sealevel;temperature;humidity
11011;BME280;5558;42.702;23.178;2024-03-17T00:01:00;93898.31;;;4.76;100.00
11011;BME280;5558;42.702;23.178;2024-03-17T00:03:27;93900.66;;;4.66;100.00
11011;BME280;5558;42.702;23.178;2024-03-17T00:05:56;93902.78;;;4.57;100.00
11011;BME280;5558;42.702;23.178;2024-03-17T00:08:23;93896.81;;;4.50;100.00
11011;BME280;5558;42.702;23.178;2024-03-17T00:10:50;93896.81;;;4.21;100.00
11011;BME280;5558;42.702;23.178;2024-03-17T00:13:17;93900.38;;;4.08;100.00
11011;BME280;5558;42.702;23.178;2024-03-17T00:15:43;93906.91;;;4.17;100.00
11011;BME280;5558;42.702;23.178;2024-03-17T00:18:09;93895.09;;;4.26;100.00
11011;BME280;5558;42.702;23.178;2024-03-17T00:20:36;93894.25;;;4.32;100.00
11011;BME280;5558;42.702;23.178;2024-03-17T00:23:05;93894.09;;;4.27;100.00
11011;BME280;5558;42.702;23.178;2024-03-17T00:25:32;93898.72;;;4.43;100.00
11011;BME280;5558;42.702;23.178;2024-03-17T00:27:59;93894.22;;;4.50;100.00
11011;BME280;5558;42.702;23.178;2024-03-17T00:30:24;93891.34;;;4.52;100.00
11011;BME280;5558;42.702;23.178;2024-03-17T00:32:51;93890.09;;;4.43;100.00
11011;BME280;5558;42.702;23.178;2024-03-17T00:35:17;93891.53;;;4.39;100.00
11011;BME280;5558;42.702;23.178;2024-03-17T00:37:46;93893.84;;;4.47;100.00
11011;BME280;5558;42.702;23.178;2024-03-17T00:40:14;93880.53;;;4.48;100.00
11011;BME280;5558;42.702;23.178;2024-03-17T00:42:41;93893.25;;;4.45;100.00
11011;BME280;5558;42.702;23.178;2024-03-17T00:45:09;93890.22;;;4.48;100.00
11011;BME280;5558;42.702;23.178;2024-03-17T00:47:35;93895.16;;;4.56;100.00
11011;BME280;5558;42.702;23.178;2024-03-17T00:50:02;93896.31;;;4.60;100.00
11011;BME280;5558;42.702;23.178;2024-03-17T00:52:29;93897.31;;;4.59;100.00
11011;BME280;5558;42.702;23.178;2024-03-17T00:54:56;93891.97;;;4.65;100.00
11011;BME280;5558;42.702;23.178;2024-03-17T00:57:23;93872.31;;;4.45;100.00
11011;BME280;5558;42.702;23.178;2024-03-17T00:59:50;93898.31;;;4.46;100.00
11011;BME280;5558;42.702;23.178;2024-03-17T01:02:16;93894.53;;;4.42;100.00
11011;BME280;5558;42.702;23.178;2024-03-17T01:04:43;93896.34;;;4.42;100.00
11011;BME280;5558;42.702;23.178;2024-03-17T01:07:09;93896.63;;;4.34;100.00
11011;BME280;5558;42.702;23.178;2024-03-17T01:09:36;93900.94;;;4.28;100.00
11011;BME280;5558;42.702;23.178;2024-03-17T01:12:02;93901.25;;;4.20;100.00
11011;BME280;5558;42.702;23.178;2024-03-17T01:14:30;93898.31;;;4.28;100.00
11011;BME280;5558;42.702;23.178;2024-03-17T01:16:56;93897.53;;;4.28;100.00
11011;BME280;5558;42.702;23.178;2024-03-17T01:19:23;93904.09;;;4.19;100.00
11011;BME280;5558;42.702;23.178;2024-03-17T01:21:50;93898.84;;;4.19;100.00
11011;BME280;5558;42.702;23.178;2024-03-17T01:24:17;93903.94;;;4.14;100.00
11011;BME280;5558;42.702;23.178;2024-03-17T01:26:43;93902.97;;;4.08;100.00
11011;BME280;5558;42.702;23.178;2024-03-17T01:29:10;93887.56;;;4.00;100.00
11011;BME280;5558;42.702;23.178;2024-03-17T01:31:37;93899.38;;;4.09;100.00
11011;BME280;5558;42.702;23.178;2024-03-17T01:34:04;93891.66;;;4.14;100.00
11011;BME280;5558;42.702;23.178;2024-03-17T01:36:29;93898.19;;;4.05;100.00
11011;BME280;5558;42.702;23.178;2024-03-17T01:38:56;93890.91;;;3.89;100.00
11011;BME280;5558;42.702;23.178;2024-03-17T01:41:21;93890.09;;;3.70;100.00
11011;BME280;5558;42.702;23.178;2024-03-17T01:43:48;93889.38;;;3.63;100.00
11011;BME280;5558;42.702;23.178;2024-03-17T01:46:15;93890.75;;;3.66;100.00
11011;BME280;5558;42.702;23.178;2024-03-17T01:48:45;93888.66;;;3.74;100.00
11011;BME280;5558;42.702;23.178;2024-03-17T01:51:11;93891.94;;;3.70;100.00
11011;BME280;5558;42.702;23.178;2024-03-17T01:53:40;93889.91;;;3.72;100.00
11011;BME280;5558;42.702;23.178;2024-03-17T01:56:10;93885.28;;;3.67;100.00
11011;BME280;5558;42.702;23.178;2024-03-17T01:58:37;93880.06;;;3.67;100.00
11011;BME280;5558;42.702;23.178;2024-03-17T02:01:03;93893.00;;;3.81;100.00
11011;BME280;5558;42.702;23.178;2024-03-17T02:03:30;93886.09;;;3.86;100.00
11011;BME280;5558;42.702;23.178;2024-03-17T02:05:58;93890.56;;;3.86;100.00
11011;BME280;5558;42.702;23.178;2024-03-17T02:08:24;93886.41;;;3.96;100.00
11011;BME280;5558;42.702;23.178;2024-03-17T02:10:53;93876.38;;;3.93;100.00
11011;BME280;5558;42.702;23.178;2024-03-17T02:13:19;93886.06;;;4.11;100.00
11011;BME280;5558;42.702;23.178;2024-03-17T02:15:46;93882.69;;;4.22;100.00
11011;BME280;5558;42.702;23.178;2024-03-17T02:18:12;93886.59;;;4.13;100.00
11011;BME280;5558;42.702;23.178;2024-03-17T02:20:39;93880.00;;;3.92;100.00
11011;BME280;5558;42.702;23.178;2024-03-17T02:23:24;93885.44;;;3.54;100.00
11011;BME280;5558;42.702;23.178;2024-03-17T02:25:52;93887.19;;;3.18;100.00
11011;BME280;5558;42.702;23.178;2024-03-17T02:28:17;93886.31;;;2.99;100.00
11011;BME280;5558;42.702;23.178;2024-03-17T02:30:44;93880.13;;;2.94;100.00
11011;BME280;5558;42.702;23.178;2024-03-17T02:33:10;93885.63;;;2.79;100.00
11011;BME280;5558;42.702;23.178;2024-03-17T02:35:37;93882.19;;;2.85;100.00
11011;BME280;5558;42.702;23.178;2024-03-17T02:38:02;93884.63;;;3.05;100.00
11011;BME280;5558;42.702;23.178;2024-03-17T02:40:31;93885.72;;;3.22;100.00
11011;BME280;5558;42.702;23.178;2024-03-17T02:42:56;93882.97;;;3.35;100.00
11011;BME280;5558;42.702;23.178;2024-03-17T02:45:23;93881.75;;;3.37;100.00
11011;BME280;5558;42.702;23.178;2024-03-17T02:47:49;93873.75;;;3.32;100.00
11011;BME280;5558;42.702;23.178;2024-03-17T02:50:16;93883.22;;;3.09;100.00
11011;BME280;5558;42.702;23.178;2024-03-17T02:52:43;93845.28;;;2.75;100.00
11011;BME280;5558;42.702;23.178;2024-03-17T02:55:10;93884.91;;;2.97;100.00
11011;BME280;5558;42.702;23.178;2024-03-17T02:57:38;93882.03;;;3.05;100.00
11011;BME280;5558;42.702;23.178;2024-03-17T03:00:07;93883.56;;;2.88;100.00
11011;BME280;5558;42.702;23.178;2024-03-17T03:02:38;93881.09;;;2.68;100.00
11011;BME280;5558;42.702;23.178;2024-03-17T03:05:05;93877.06;;;2.66;100.00
11011;BME280;5558;42.702;23.178;2024-03-17T03:07:32;93872.66;;;2.66;100.00
11011;BME280;5558;42.702;23.178;2024-03-17T03:09:58;93875.53;;;2.58;100.00
11011;BME280;5558;42.702;23.178;2024-03-17T03:12:25;93872.56;;;2.48;100.00
11011;BME280;5558;42.702;23.178;2024-03-17T03:14:53;93879.38;;;2.49;100.00
11011;BME280;5558;42.702;23.178;2024-03-17T03:17:20;93876.78;;;2.49;100.00
11011;BME280;5558;42.702;23.178;2024-03-17T03:19:47;93871.97;;;2.46;100.00
11011;BME280;5558;42.702;23.178;2024-03-17T03:22:13;93869.72;;;2.56;100.00
11011;BME280;5558;42.702;23.178;2024-03-17T03:24:40;93865.19;;;2.70;100.00
11011;BME280;5558;42.702;23.178;2024-03-17T03:27:07;93851.72;;;2.73;100.00
11011;BME280;5558;42.702;23.178;2024-03-17T03:29:35;93874.66;;;2.95;100.00
11011;BME280;5558;42.702;23.178;2024-03-17T03:32:04;93873.91;;;2.88;100.00
11011;BME280;5558;42.702;23.178;2024-03-17T03:34:31;93879.94;;;2.89;100.00
11011;BME280;5558;42.702;23.178;2024-03-17T03:36:59;93881.03;;;2.75;100.00
11011;BME280;5558;42.702;23.178;2024-03-17T03:39:25;93881.63;;;2.77;100.00
11011;BME280;5558;42.702;23.178;2024-03-17T03:41:57;93879.63;;;2.79;100.00
11011;BME280;5558;42.702;23.178;2024-03-17T03:44:23;93884.09;;;2.96;100.00
11011;BME280;5558;42.702;23.178;2024-03-17T03:46:50;93884.81;;;3.10;100.00
11011;BME280;5558;42.702;23.178;2024-03-17T03:49:19;93885.59;;;2.86;100.00
11011;BME280;5558;42.702;23.178;2024-03-17T03:51:46;93883.88;;;2.73;100.00
11011;BME280;5558;42.702;23.178;2024-03-17T03:54:13;93886.91;;;2.70;100.00
11011;BME280;5558;42.702;23.178;2024-03-17T03:56:40;93890.13;;;2.97;100.00
11011;BME280;5558;42.702;23.178;2024-03-17T03:59:06;93888.06;;;3.05;100.00
11011;BME280;5558;42.702;23.178;2024-03-17T04:01:33;93890.53;;;3.00;100.00
11011;BME280;5558;42.702;23.178;2024-03-17T04:03:59;93897.25;;;3.14;100.00
11011;BME280;5558;42.702;23.178;2024-03-17T04:06:27;93897.03;;;3.16;100.00
11011;BME280;5558;42.702;23.178;2024-03-17T04:08:54;93895.81;;;2.94;100.00
11011;BME280;5558;42.702;23.178;2024-03-17T04:11:21;93900.75;;;2.71;100.00
11011;BME280;5558;42.702;23.178;2024-03-17T04:13:47;93905.16;;;2.77;100.00
11011;BME280;5558;42.702;23.178;2024-03-17T04:16:14;93910.09;;;2.60;100.00
11011;BME280;5558;42.702;23.178;2024-03-17T04:18:41;93907.91;;;2.57;100.00
11011;BME280;5558;42.702;23.178;2024-03-17T04:21:07;93914.75;;;2.52;100.00
11011;BME280;5558;42.702;23.178;2024-03-17T04:23:35;93914.53;;;2.53;100.00
11011;BME280;5558;42.702;23.178;2024-03-17T04:26:04;93919.91;;;2.65;100.00
11011;BME280;5558;42.702;23.178;2024-03-17T04:28:32;93918.13;;;2.90;100.00
11011;BME280;5558;42.702;23.178;2024-03-17T04:31:03;93923.53;;;2.95;100.00
11011;BME280;5558;42.702;23.178;2024-03-17T04:33:31;93923.78;;;3.18;100.00
11011;BME280;5558;42.702;23.178;2024-03-17T04:35:58;93928.59;;;3.21;100.00
11011;BME280;5558;42.702;23.178;2024-03-17T04:38:25;93925.16;;;3.20;100.00
11011;BME280;5558;42.702;23.178;2024-03-17T04:40:53;93919.94;;;3.20;100.00
11011;BME280;5558;42.702;23.178;2024-03-17T04:43:29;93930.00;;;3.17;100.00
11011;BME280;5558;42.702;23.178;2024-03-17T04:46:01;93931.19;;;3.21;100.00
11011;BME280;5558;42.702;23.178;2024-03-17T04:48:29;93934.78;;;3.26;100.00
11011;BME280;5558;42.702;23.178;2024-03-17T04:50:56;93945.44;;;3.49;100.00
11011;BME280;5558;42.702;23.178;2024-03-17T04:53:22;93944.19;;;3.58;100.00
11011;BME280;5558;42.702;23.178;2024-03-17T04:55:59;93949.50;;;3.70;100.00
11011;BME280;5558;42.702;23.178;2024-03-17T04:58:26;93947.78;;;3.82;100.00
11011;BME280;5558;42.702;23.178;2024-03-17T05:00:52;93949.75;;;4.05;100.00
11011;BME280;5558;42.702;23.178;2024-03-17T05:03:19;93951.16;;;4.25;100.00
11011;BME280;5558;42.702;23.178;2024-03-17T05:05:46;93957.25;;;4.55;100.00
11011;BME280;5558;42.702;23.178;2024-03-17T05:08:12;93951.84;;;4.68;100.00
11011;BME280;5558;42.702;23.178;2024-03-17T05:10:39;93961.13;;;4.82;100.00
11011;BME280;5558;42.702;23.178;2024-03-17T05:13:07;93958.56;;;4.94;100.00
11011;BME280;5558;42.702;23.178;2024-03-17T05:15:36;93966.66;;;5.22;100.00
11011;BME280;5558;42.702;23.178;2024-03-17T05:18:03;93972.88;;;5.51;100.00
11011;BME280;5558;42.702;23.178;2024-03-17T05:20:30;93961.31;;;5.93;100.00
11011;BME280;5558;42.702;23.178;2024-03-17T05:22:57;93967.75;;;6.48;100.00
11011;BME280;5558;42.702;23.178;2024-03-17T05:25:24;93971.44;;;6.98;100.00
11011;BME280;5558;42.702;23.178;2024-03-17T05:27:51;93968.59;;;7.16;100.00
11011;BME280;5558;42.702;23.178;2024-03-17T05:30:19;93965.69;;;7.46;100.00
11011;BME280;5558;42.702;23.178;2024-03-17T05:32:45;93975.38;;;7.74;100.00
11011;BME280;5558;42.702;23.178;2024-03-17T05:35:12;93983.28;;;7.74;100.00
11011;BME280;5558;42.702;23.178;2024-03-17T05:37:39;93978.34;;;7.94;100.00
11011;BME280;5558;42.702;23.178;2024-03-17T05:40:07;93982.41;;;8.01;100.00
11011;BME280;5558;42.702;23.178;2024-03-17T05:42:37;93981.47;;;8.40;100.00
11011;BME280;5558;42.702;23.178;2024-03-17T05:45:04;93981.09;;;8.75;100.00
11011;BME280;5558;42.702;23.178;2024-03-17T05:47:33;93972.31;;;9.13;100.00
11011;BME280;5558;42.702;23.178;2024-03-17T05:49:59;93981.72;;;9.52;100.00
11011;BME280;5558;42.702;23.178;2024-03-17T05:52:26;93983.38;;;9.89;100.00
11011;BME280;5558;42.702;23.178;2024-03-17T05:54:52;93985.06;;;10.32;100.00
11011;BME280;5558;42.702;23.178;2024-03-17T05:57:21;93985.13;;;10.84;100.00
11011;BME280;5558;42.702;23.178;2024-03-17T05:59:48;93976.53;;;11.29;100.00
11011;BME280;5558;42.702;23.178;2024-03-17T06:02:14;93980.66;;;11.71;100.00
11011;BME280;5558;42.702;23.178;2024-03-17T06:04:42;93989.44;;;12.32;100.00
11011;BME280;5558;42.702;23.178;2024-03-17T06:07:09;93993.31;;;13.05;91.48
11011;BME280;5558;42.702;23.178;2024-03-17T06:09:36;93996.75;;;13.69;78.35
11011;BME280;5558;42.702;23.178;2024-03-17T06:12:03;94000.75;;;14.10;71.26
11011;BME280;5558;42.702;23.178;2024-03-17T06:14:29;94000.63;;;14.30;66.60
11011;BME280;5558;42.702;23.178;2024-03-17T06:16:56;94007.00;;;14.24;65.45
11011;BME280;5558;42.702;23.178;2024-03-17T06:19:23;94000.84;;;13.90;64.79
11011;BME280;5558;42.702;23.178;2024-03-17T06:21:51;94001.00;;;13.65;65.16
11011;BME280;5558;42.702;23.178;2024-03-17T06:24:17;94001.06;;;13.55;65.22
11011;BME280;5558;42.702;23.178;2024-03-17T06:26:44;94003.44;;;13.57;64.77
11011;BME280;5558;42.702;23.178;2024-03-17T06:29:12;93979.00;;;13.55;64.62
11011;BME280;5558;42.702;23.178;2024-03-17T06:31:38;94011.97;;;14.02;63.35
11011;BME280;5558;42.702;23.178;2024-03-17T06:34:05;94015.53;;;14.60;62.67
11011;BME280;5558;42.702;23.178;2024-03-17T06:36:32;94018.78;;;15.09;59.67
11011;BME280;5558;42.702;23.178;2024-03-17T06:39:00;94012.13;;;15.59;56.23
11011;BME280;5558;42.702;23.178;2024-03-17T06:41:26;94015.94;;;16.27;52.95
11011;BME280;5558;42.702;23.178;2024-03-17T06:43:53;94009.16;;;16.85;51.41
11011;BME280;5558;42.702;23.178;2024-03-17T06:46:20;94003.56;;;17.41;49.97
11011;BME280;5558;42.702;23.178;2024-03-17T06:48:46;93992.91;;;18.04;48.09
11011;BME280;5558;42.702;23.178;2024-03-17T06:51:13;93998.81;;;18.72;45.08
11011;BME280;5558;42.702;23.178;2024-03-17T06:53:40;94005.50;;;18.83;44.19
11011;BME280;5558;42.702;23.178;2024-03-17T06:56:08;94012.53;;;18.71;44.24
11011;BME280;5558;42.702;23.178;2024-03-17T06:58:34;94004.78;;;18.11;44.50
11011;BME280;5558;42.702;23.178;2024-03-17T07:01:01;94005.13;;;17.29;46.14
11011;BME280;5558;42.702;23.178;2024-03-17T07:03:30;94007.69;;;16.61;48.47
11011;BME280;5558;42.702;23.178;2024-03-17T07:05:58;94004.78;;;16.25;48.44
11011;BME280;5558;42.702;23.178;2024-03-17T07:08:27;94013.81;;;15.50;50.54
11011;BME280;5558;42.702;23.178;2024-03-17T07:10:58;93999.72;;;15.21;51.81
11011;BME280;5558;42.702;23.178;2024-03-17T07:13:28;94007.09;;;14.14;54.34
11011;BME280;5558;42.702;23.178;2024-03-17T07:15:55;94004.91;;;14.26;55.30
11011;BME280;5558;42.702;23.178;2024-03-17T07:18:21;94011.78;;;14.32;55.27
11011;BME280;5558;42.702;23.178;2024-03-17T07:20:48;94010.41;;;13.96;56.43
11011;BME280;5558;42.702;23.178;2024-03-17T07:23:15;94009.38;;;13.92;57.91
11011;BME280;5558;42.702;23.178;2024-03-17T07:25:42;94009.25;;;14.07;58.41
11011;BME280;5558;42.702;23.178;2024-03-17T07:28:09;94013.09;;;13.91;59.98
11011;BME280;5558;42.702;23.178;2024-03-17T07:30:37;93998.47;;;13.40;64.27
11011;BME280;5558;42.702;23.178;2024-03-17T07:33:04;94010.53;;;13.22;69.54
11011;BME280;5558;42.702;23.178;2024-03-17T07:35:30;94014.50;;;13.20;68.74
11011;BME280;5558;42.702;23.178;2024-03-17T07:37:57;94015.59;;;13.19;70.17
11011;BME280;5558;42.702;23.178;2024-03-17T07:40:24;94011.16;;;12.69;71.41
11011;BME280;5558;42.702;23.178;2024-03-17T07:42:50;94009.34;;;12.55;73.96
11011;BME280;5558;42.702;23.178;2024-03-17T07:45:18;94013.03;;;12.44;77.44
11011;BME280;5558;42.702;23.178;2024-03-17T07:47:46;94009.88;;;12.26;76.62
11011;BME280;5558;42.702;23.178;2024-03-17T07:50:13;94017.25;;;11.89;77.17
11011;BME280;5558;42.702;23.178;2024-03-17T07:52:40;94011.44;;;11.97;77.77
11011;BME280;5558;42.702;23.178;2024-03-17T07:55:07;94009.84;;;12.01;77.35
11011;BME280;5558;42.702;23.178;2024-03-17T07:57:34;94011.78;;;11.29;90.30
11011;BME280;5558;42.702;23.178;2024-03-17T08:00:01;94020.94;;;11.01;95.36
11011;BME280;5558;42.702;23.178;2024-03-17T08:02:28;94012.59;;;10.78;100.00
11011;BME280;5558;42.702;23.178;2024-03-17T08:04:56;94014.56;;;10.92;100.00
11011;BME280;5558;42.702;23.178;2024-03-17T08:07:23;94015.69;;;11.12;98.33
11011;BME280;5558;42.702;23.178;2024-03-17T08:09:50;94020.94;;;11.01;99.10
11011;BME280;5558;42.702;23.178;2024-03-17T08:12:16;94018.94;;;10.72;100.00
11011;BME280;5558;42.702;23.178;2024-03-17T08:14:43;94014.22;;;10.42;100.00
11011;BME280;5558;42.702;23.178;2024-03-17T08:17:10;94025.31;;;10.08;100.00
11011;BME280;5558;42.702;23.178;2024-03-17T08:19:36;94014.81;;;10.13;100.00
11011;BME280;5558;42.702;23.178;2024-03-17T08:22:05;94016.97;;;10.57;100.00
11011;BME280;5558;42.702;23.178;2024-03-17T08:24:32;94012.72;;;10.51;100.00
11011;BME280;5558;42.702;23.178;2024-03-17T08:26:59;94009.19;;;10.87;100.00
11011;BME280;5558;42.702;23.178;2024-03-17T08:29:25;94006.50;;;11.29;100.00
11011;BME280;5558;42.702;23.178;2024-03-17T08:31:52;94002.34;;;11.53;96.93
11011;BME280;5558;42.702;23.178;2024-03-17T08:34:18;94005.31;;;11.72;94.59
11011;BME280;5558;42.702;23.178;2024-03-17T08:36:45;94009.31;;;12.14;89.19
11011;BME280;5558;42.702;23.178;2024-03-17T08:39:13;93993.13;;;12.56;83.78
11011;BME280;5558;42.702;23.178;2024-03-17T08:41:40;93995.28;;;12.44;83.80
11011;BME280;5558;42.702;23.178;2024-03-17T08:44:06;93992.84;;;12.63;80.08
11011;BME280;5558;42.702;23.178;2024-03-17T08:46:33;93992.75;;;12.98;77.00
11011;BME280;5558;42.702;23.178;2024-03-17T08:49:00;93988.16;;;13.28;74.58
11011;BME280;5558;42.702;23.178;2024-03-17T08:51:26;93985.22;;;13.35;74.98
11011;BME280;5558;42.702;23.178;2024-03-17T08:53:54;93978.19;;;12.95;78.21
11011;BME280;5558;42.702;23.178;2024-03-17T08:56:23;93980.28;;;13.08;81.89
11011;BME280;5558;42.702;23.178;2024-03-17T08:58:50;93987.97;;;13.15;80.31
11011;BME280;5558;42.702;23.178;2024-03-17T09:01:17;93986.63;;;13.12;79.07
11011;BME280;5558;42.702;23.178;2024-03-17T09:03:43;93974.03;;;12.44;84.13
11011;BME280;5558;42.702;23.178;2024-03-17T09:06:16;93969.47;;;12.75;85.01
11011;BME280;5558;42.702;23.178;2024-03-17T09:08:45;93974.00;;;12.59;80.61
11011;BME280;5558;42.702;23.178;2024-03-17T09:11:13;93968.44;;;12.46;79.32
11011;BME280;5558;42.702;23.178;2024-03-17T09:13:40;93968.72;;;12.39;78.68
11011;BME280;5558;42.702;23.178;2024-03-17T09:16:08;93977.25;;;12.31;80.03
11011;BME280;5558;42.702;23.178;2024-03-17T09:18:38;93969.72;;;12.73;80.45
11011;BME280;5558;42.702;23.178;2024-03-17T09:21:06;93974.66;;;13.15;77.90
11011;BME280;5558;42.702;23.178;2024-03-17T09:23:34;93953.13;;;13.16;73.26
11011;BME280;5558;42.702;23.178;2024-03-17T09:26:04;93956.00;;;13.25;73.30
11011;BME280;5558;42.702;23.178;2024-03-17T09:28:32;93960.88;;;13.03;72.04
11011;BME280;5558;42.702;23.178;2024-03-17T09:31:00;93957.38;;;13.12;70.46
11011;BME280;5558;42.702;23.178;2024-03-17T09:33:29;93950.78;;;13.10;68.19
11011;BME280;5558;42.702;23.178;2024-03-17T09:35:57;93955.28;;;13.58;65.98
11011;BME280;5558;42.702;23.178;2024-03-17T09:38:24;93954.84;;;14.23;62.82
11011;BME280;5558;42.702;23.178;2024-03-17T09:40:50;93951.50;;;14.94;58.65
11011;BME280;5558;42.702;23.178;2024-03-17T09:43:19;93942.16;;;15.43;57.30
11011;BME280;5558;42.702;23.178;2024-03-17T09:45:46;93955.59;;;15.75;54.42
11011;BME280;5558;42.702;23.178;2024-03-17T09:48:16;93951.75;;;15.81;54.09
11011;BME280;5558;42.702;23.178;2024-03-17T09:50:50;93951.94;;;15.48;52.91
11011;BME280;5558;42.702;23.178;2024-03-17T09:53:22;93959.31;;;15.32;53.89
11011;BME280;5558;42.702;23.178;2024-03-17T09:55:50;93949.28;;;15.24;51.18
11011;BME280;5558;42.702;23.178;2024-03-17T09:58:17;93954.75;;;15.14;50.47
11011;BME280;5558;42.702;23.178;2024-03-17T10:00:43;93956.00;;;15.22;48.89
11011;BME280;5558;42.702;23.178;2024-03-17T10:03:10;93955.59;;;15.33;48.68
11011;BME280;5558;42.702;23.178;2024-03-17T10:05:39;93961.91;;;15.42;48.17
11011;BME280;5558;42.702;23.178;2024-03-17T10:08:06;93946.91;;;15.23;49.27
11011;BME280;5558;42.702;23.178;2024-03-17T10:10:34;93952.81;;;15.20;48.73
11011;BME280;5558;42.702;23.178;2024-03-17T10:13:00;93957.28;;;15.48;48.35
11011;BME280;5558;42.702;23.178;2024-03-17T10:15:27;93953.88;;;15.19;49.98
11011;BME280;5558;42.702;23.178;2024-03-17T10:17:55;93958.75;;;14.36;54.82
11011;BME280;5558;42.702;23.178;2024-03-17T10:20:23;93962.22;;;13.59;56.05
11011;BME280;5558;42.702;23.178;2024-03-17T10:23:00;93958.56;;;13.45;57.43
11011;BME280;5558;42.702;23.178;2024-03-17T10:25:28;93962.72;;;13.66;56.22
11011;BME280;5558;42.702;23.178;2024-03-17T10:27:55;93960.16;;;13.90;56.66
11011;BME280;5558;42.702;23.178;2024-03-17T10:30:23;93951.75;;;14.11;54.46
11011;BME280;5558;42.702;23.178;2024-03-17T10:32:58;93955.88;;;14.61;53.71
11011;BME280;5558;42.702;23.178;2024-03-17T10:35:30;93933.91;;;14.45;51.40
11011;BME280;5558;42.702;23.178;2024-03-17T10:37:59;93964.00;;;14.46;49.45
11011;BME280;5558;42.702;23.178;2024-03-17T10:40:27;93949.97;;;14.35;49.16
11011;BME280;5558;42.702;23.178;2024-03-17T10:42:55;93954.84;;;14.23;48.30
11011;BME280;5558;42.702;23.178;2024-03-17T10:45:22;93955.41;;;14.25;48.81
11011;BME280;5558;42.702;23.178;2024-03-17T10:47:50;93961.34;;;14.46;48.17
11011;BME280;5558;42.702;23.178;2024-03-17T10:50:19;93951.00;;;14.39;47.32
11011;BME280;5558;42.702;23.178;2024-03-17T10:52:47;93957.44;;;14.33;46.73
11011;BME280;5558;42.702;23.178;2024-03-17T10:55:25;93957.41;;;14.38;46.05
11011;BME280;5558;42.702;23.178;2024-03-17T10:57:54;93957.69;;;14.37;45.75
11011;BME280;5558;42.702;23.178;2024-03-17T11:00:24;93952.31;;;14.42;46.10
11011;BME280;5558;42.702;23.178;2024-03-17T11:02:52;93943.59;;;14.60;45.85
11011;BME280;5558;42.702;23.178;2024-03-17T11:05:23;93947.38;;;14.83;43.48
11011;BME280;5558;42.702;23.178;2024-03-17T11:07:51;93950.94;;;14.73;43.59
11011;BME280;5558;42.702;23.178;2024-03-17T11:10:22;93943.63;;;14.31;43.23
11011;BME280;5558;42.702;23.178;2024-03-17T11:12:51;93929.56;;;13.87;44.97
11011;BME280;5558;42.702;23.178;2024-03-17T11:15:49;93933.25;;;14.30;44.78
11011;BME280;5558;42.702;23.178;2024-03-17T11:18:32;93944.28;;;14.47;43.51
11011;BME280;5558;42.702;23.178;2024-03-17T11:20:59;93936.22;;;14.81;42.87
11011;BME280;5558;42.702;23.178;2024-03-17T11:23:29;93933.88;;;14.98;42.01
11011;BME280;5558;42.702;23.178;2024-03-17T11:25:58;93933.28;;;15.24;41.38
11011;BME280;5558;42.702;23.178;2024-03-17T11:28:45;93930.47;;;15.16;41.30
11011;BME280;5558;42.702;23.178;2024-03-17T11:31:35;93935.50;;;14.70;42.41
11011;BME280;5558;42.702;23.178;2024-03-17T11:34:06;93939.53;;;14.44;44.01
11011;BME280;5558;42.702;23.178;2024-03-17T11:36:33;93927.88;;;14.35;44.51
11011;BME280;5558;42.702;23.178;2024-03-17T11:39:03;93928.00;;;13.86;45.51
11011;BME280;5558;42.702;23.178;2024-03-17T11:41:35;93919.91;;;13.63;46.13
11011;BME280;5558;42.702;23.178;2024-03-17T11:44:24;93927.06;;;13.67;46.01
11011;BME280;5558;42.702;23.178;2024-03-17T11:46:52;93923.81;;;13.75;46.83
11011;BME280;5558;42.702;23.178;2024-03-17T11:49:21;93915.25;;;13.83;47.42
11011;BME280;5558;42.702;23.178;2024-03-17T11:51:48;93923.31;;;14.07;47.58
11011;BME280;5558;42.702;23.178;2024-03-17T11:54:16;93923.75;;;14.19;47.50
11011;BME280;5558;42.702;23.178;2024-03-17T11:56:45;93921.19;;;14.04;47.35
11011;BME280;5558;42.702;23.178;2024-03-17T11:59:12;93913.44;;;14.07;48.10
11011;BME280;5558;42.702;23.178;2024-03-17T12:01:39;93909.56;;;14.28;48.61
11011;BME280;5558;42.702;23.178;2024-03-17T12:04:06;93916.31;;;14.44;49.47
11011;BME280;5558;42.702;23.178;2024-03-17T12:06:33;93914.69;;;14.48;49.60
11011;BME280;5558;42.702;23.178;2024-03-17T12:09:11;93918.22;;;14.10;49.91
11011;BME280;5558;42.702;23.178;2024-03-17T12:11:43;93913.00;;;14.00;51.09
11011;BME280;5558;42.702;23.178;2024-03-17T12:14:16;93906.63;;;13.96;51.61
11011;BME280;5558;42.702;23.178;2024-03-17T12:16:54;93915.03;;;13.75;53.23
11011;BME280;5558;42.702;23.178;2024-03-17T12:19:22;93911.50;;;13.84;54.16
11011;BME280;5558;42.702;23.178;2024-03-17T12:21:49;93910.47;;;14.14;54.06
11011;BME280;5558;42.702;23.178;2024-03-17T12:24:18;93899.50;;;13.92;53.87
11011;BME280;5558;42.702;23.178;2024-03-17T12:26:44;93906.53;;;14.06;55.40
11011;BME280;5558;42.702;23.178;2024-03-17T12:29:25;93906.97;;;14.18;55.31
11011;BME280;5558;42.702;23.178;2024-03-17T12:31:55;93901.13;;;14.16;55.01
11011;BME280;5558;42.702;23.178;2024-03-17T12:34:24;93882.97;;;13.61;55.95
11011;BME280;5558;42.702;23.178;2024-03-17T12:36:51;93902.28;;;13.72;57.29
11011;BME280;5558;42.702;23.178;2024-03-17T12:39:19;93896.91;;;13.77;57.55
11011;BME280;5558;42.702;23.178;2024-03-17T12:41:45;93908.41;;;13.72;58.59
11011;BME280;5558;42.702;23.178;2024-03-17T12:44:22;93905.34;;;13.89;59.42
11011;BME280;5558;42.702;23.178;2024-03-17T12:46:48;93898.16;;;13.89;57.43
11011;BME280;5558;42.702;23.178;2024-03-17T12:49:16;93889.28;;;13.65;60.15
11011;BME280;5558;42.702;23.178;2024-03-17T12:51:41;93899.44;;;13.58;62.57
11011;BME280;5558;42.702;23.178;2024-03-17T12:54:14;93895.09;;;13.72;60.52
11011;BME280;5558;42.702;23.178;2024-03-17T12:56:40;93894.63;;;13.99;61.87
11011;BME280;5558;42.702;23.178;2024-03-17T12:59:24;93898.56;;;14.06;60.13
11011;BME280;5558;42.702;23.178;2024-03-17T13:02:10;93890.09;;;13.99;60.27
11011;BME280;5558;42.702;23.178;2024-03-17T13:04:39;93893.88;;;13.93;60.35